Time;durP1;ratioP1;P1;durP2;ratioP2;P2;SDS_P1;SDS_P2;PMS_P1;PMS_P2;Temp;Humidity;BMP_temperature;BMP_pressure;BME280_temperature;BME280_humidity;BME280_pressure;Samples;Min_cycle;Max_cycle;Signal;HPM_P1;HPM_P2
2021/12/18 00:00:46;;;;;;;9.23;3.80;;;;;;;0.79;82.54;94973.75;5031559;28;20225;-70
2021/12/18 00:03:13;;;;;;;5.95;3.45;;;;;;;0.86;81.58;94963.63;5031316;28;20243;-70
2021/12/18 00:05:39;;;;;;;9.65;4.68;;;;;;;0.82;81.80;94977.75;5030050;28;20208;-70
2021/12/18 00:08:06;;;;;;;6.28;3.35;;;;;;;0.81;82.12;94976.16;5019122;28;20426;-70
2021/12/18 00:10:35;;;;;;;9.50;3.67;;;;;;;0.77;81.94;94975.06;5031045;28;20610;-70
2021/12/18 00:13:02;;;;;;;10.20;3.92;;;;;;;0.80;81.88;94974.53;5031075;28;20678;-69
2021/12/18 00:15:30;;;;;;;9.90;4.65;;;;;;;0.76;81.68;94963.59;5030959;28;20603;-71
2021/12/18 00:17:58;;;;;;;9.60;4.25;;;;;;;0.76;81.55;94968.91;5030881;28;20208;-71
2021/12/18 00:20:26;;;;;;;7.53;4.10;;;;;;;0.77;81.78;94970.53;5031008;28;20342;-70
2021/12/18 00:22:53;;;;;;;6.45;3.50;;;;;;;0.78;81.96;94974.81;5030994;28;20678;-70
2021/12/18 00:25:20;;;;;;;7.70;4.32;;;;;;;0.79;82.12;94972.94;5030957;28;20291;-70
2021/12/18 00:27:48;;;;;;;7.20;3.03;;;;;;;0.71;82.35;94980.34;5030540;28;20204;-70
2021/12/18 00:30:16;;;;;;;10.73;4.78;;;;;;;0.67;82.46;94981.94;5031008;28;20683;-70
2021/12/18 00:32:43;;;;;;;8.07;4.40;;;;;;;0.56;82.37;94958.91;5021530;28;20983;-70
2021/12/18 00:35:10;;;;;;;8.02;4.45;;;;;;;0.74;82.42;94979.03;5016970;28;20683;-70
2021/12/18 00:37:36;;;;;;;11.35;4.72;;;;;;;0.67;81.89;94979.28;5020714;28;20270;-69
2021/12/18 00:40:09;;;;;;;9.30;5.07;;;;;;;0.74;82.09;94975.56;5022752;28;20276;-72
2021/12/18 00:42:42;;;;;;;6.80;4.43;;;;;;;0.82;81.68;94983.09;5023333;28;20220;-71
2021/12/18 00:45:14;;;;;;;9.10;4.30;;;;;;;0.83;81.69;94977.47;5018001;28;20315;-70
2021/12/18 00:47:42;;;;;;;11.13;5.25;;;;;;;0.79;81.35;94973.75;5030253;28;20242;-70
2021/12/18 00:50:13;;;;;;;8.15;4.63;;;;;;;0.77;82.09;94975.06;5030711;28;20270;-71
2021/12/18 00:52:40;;;;;;;8.13;4.63;;;;;;;0.75;82.47;94982.50;5030753;28;20604;-70
2021/12/18 00:55:08;;;;;;;12.20;4.07;;;;;;;0.73;81.78;94989.94;5030485;28;20781;-71
2021/12/18 00:57:36;;;;;;;7.35;3.45;;;;;;;0.82;81.20;94983.88;5036865;28;20204;-70
2021/12/18 01:00:05;;;;;;;6.97;3.85;;;;;;;0.77;80.87;94985.72;5036319;28;20212;-71
2021/12/18 01:02:34;;;;;;;10.40;4.43;;;;;;;0.76;81.14;94984.91;5036770;28;20714;-69
2021/12/18 01:05:00;;;;;;;11.90;5.70;;;;;;;1.95;93.49;94968.03;5037292;28;20200;-69
2021/12/18 01:07:27;;;;;;;7.57;3.78;;;;;;;1.29;80.88;94978.53;5036351;28;20697;-69
2021/12/18 01:10:03;;;;;;;6.60;3.28;;;;;;;1.11;80.36;94976.28;5037106;28;20207;-69
2021/12/18 01:12:36;;;;;;;5.75;3.72;;;;;;;1.10;80.21;94980.03;5036743;28;20192;-69
2021/12/18 01:15:17;;;;;;;5.28;3.13;;;;;;;0.95;79.63;94982.63;5036599;28;20229;-68
2021/12/18 01:23:16;;;;;;;9.18;4.43;;;;;;;1.00;79.22;94986.13;5037088;28;20215;-69
2021/12/18 01:25:43;;;;;;;6.97;2.97;;;;;;;0.87;79.01;94985.78;5037176;28;20624;-70
2021/12/18 01:28:10;;;;;;;7.13;3.53;;;;;;;0.89;79.57;94987.13;5034178;28;20200;-69
2021/12/18 01:30:37;;;;;;;8.13;4.30;;;;;;;0.87;79.18;94980.44;5015808;28;20255;-69
2021/12/18 01:33:05;;;;;;;5.88;3.85;;;;;;;0.80;79.72;94985.22;5029219;28;20211;-69
2021/12/18 01:35:33;;;;;;;6.35;3.50;;;;;;;0.82;79.95;94975.09;5022534;28;20637;-69
2021/12/18 01:38:00;;;;;;;6.47;3.65;;;;;;;0.82;79.45;94977.75;5029192;28;20204;-69
2021/12/18 01:40:28;;;;;;;8.52;4.13;;;;;;;0.87;79.10;94985.78;5007099;28;20232;-69
2021/12/18 01:46:02;;;;;;;10.13;4.18;;;;;;;0.97;79.68;94981.28;5024724;28;20309;-70
2021/12/18 01:51:20;;;;;;;8.63;3.20;;;;;;;0.86;79.84;94973.50;5035658;28;20195;-70
2021/12/18 01:53:50;;;;;;;9.23;4.65;;;;;;;0.79;80.33;94970.28;5035210;28;20291;-69
2021/12/18 01:56:17;;;;;;;5.63;3.30;;;;;;;1.01;80.13;94973.59;5035200;28;20640;-68
2021/12/18 01:58:45;;;;;;;5.43;2.85;;;;;;;0.89;79.85;94962.31;5035389;28;20246;-70
2021/12/18 02:01:13;;;;;;;6.70;3.80;;;;;;;0.83;79.98;94966.81;5035142;28;20310;-70
2021/12/18 02:03:42;;;;;;;5.10;3.13;;;;;;;0.66;80.26;94959.00;5036068;28;20231;-70
2021/12/18 02:06:10;;;;;;;10.38;4.13;;;;;;;0.80;80.23;94963.88;5029911;28;20208;-70
2021/12/18 02:08:38;;;;;;;7.60;4.32;;;;;;;0.75;80.70;94961.19;5012311;28;20212;-70
2021/12/18 02:11:23;;;;;;;7.35;3.75;;;;;;;0.70;80.96;94965.41;5026376;28;20284;-71
2021/12/18 02:22:22;;;;;;;13.55;4.75;;;;;;;0.68;80.55;94964.09;5029245;28;20706;-69
2021/12/18 02:24:49;;;;;;;11.68;4.35;;;;;;;0.78;80.90;94960.66;5033714;28;20201;-69
2021/12/18 02:27:16;;;;;;;9.10;4.50;;;;;;;0.71;80.54;94972.34;5028061;28;20622;-70
2021/12/18 02:29:44;;;;;;;5.78;3.33;;;;;;;0.81;80.21;94976.16;5013798;28;20212;-70
2021/12/18 02:32:12;;;;;;;7.13;4.10;;;;;;;0.67;80.81;94971.28;5031982;28;20658;-69
2021/12/18 02:34:41;;;;;;;9.38;3.83;;;;;;;0.60;81.04;94970.69;5020694;28;20194;-69
2021/12/18 02:37:11;;;;;;;11.93;6.10;;;;;;;0.60;80.46;94962.69;5032959;28;20196;-69
2021/12/18 02:40:46;;;;;;;6.88;4.32;;;;;;;0.67;80.57;94960.63;5028396;28;20193;-69
2021/12/18 02:42:43;;;;;;;7.10;3.78;;;;;;;0.64;80.97;94958.44;5026103;28;20318;-70
2021/12/18 02:45:12;;;;;;;5.18;2.95;;;;;;;0.69;81.36;94963.78;5007675;28;20287;-69
2021/12/18 02:47:39;;;;;;;7.25;3.05;;;;;;;0.64;80.81;94968.31;5032574;28;20834;-70
2021/12/18 02:50:06;;;;;;;11.25;3.92;;;;;;;0.62;80.95;94979.22;5032862;28;20770;-69
2021/12/18 02:52:33;;;;;;;5.53;2.88;;;;;;;0.71;80.90;94982.19;5032620;28;20204;-69
2021/12/18 02:55:02;;;;;;;6.32;3.88;;;;;;;0.67;81.18;94981.94;5032700;28;20204;-70
2021/12/18 02:57:29;;;;;;;9.32;4.15;;;;;;;0.60;81.50;94983.19;5032530;28;20737;-70
2021/12/18 02:59:57;;;;;;;6.55;2.33;;;;;;;0.56;81.39;94990.91;5032513;28;20267;-69
2021/12/18 03:02:26;;;;;;;5.90;2.65;;;;;;;0.60;81.88;94985.88;5032167;28;20333;-69
2021/12/18 03:04:57;;;;;;;6.70;3.40;;;;;;;0.66;81.53;94983.00;5032457;28;20204;-69
2021/12/18 03:07:26;;;;;;;7.38;3.92;;;;;;;0.72;80.66;94991.81;5019289;28;20287;-70
2021/12/18 03:23:49;;;;;;;7.78;4.03;;;;;;;0.69;83.33;94992.31;5031279;28;20591;-69
2021/12/18 03:26:16;;;;;;;6.45;3.67;;;;;;;0.54;83.96;94976.25;5032008;28;20188;-71
2021/12/18 03:28:44;;;;;;;7.85;4.03;;;;;;;0.52;84.25;94994.34;5031854;28;20251;-70
2021/12/18 03:31:11;;;;;;;10.45;4.82;;;;;;;0.43;84.45;94991.34;5031907;28;20303;-70
2021/12/18 03:33:38;;;;;;;9.10;3.92;;;;;;;0.53;83.66;94996.75;5031609;28;20258;-70
2021/12/18 03:36:07;;;;;;;6.50;3.78;;;;;;;0.51;85.02;95001.53;5026139;28;20716;-70
2021/12/18 03:38:34;;;;;;;10.43;4.75;;;;;;;0.35;85.39;95000.63;5031557;28;20761;-69
2021/12/18 03:41:01;;;;;;;10.32;4.40;;;;;;;0.42;85.30;95011.03;5016363;28;20647;-70
2021/12/18 03:43:28;;;;;;;8.52;3.92;;;;;;;0.48;85.93;95007.38;5030968;28;20703;-70
2021/12/18 03:45:56;;;;;;;7.75;4.72;;;;;;;0.30;86.83;95016.53;5031512;28;20228;-69
2021/12/18 03:48:23;;;;;;;10.52;4.55;;;;;;;0.29;87.38;95022.13;5015876;28;20238;-70
2021/12/18 03:50:52;;;;;;;7.95;3.83;;;;;;;0.12;88.47;95016.13;5025067;28;20683;-69
2021/12/18 03:53:19;;;;;;;12.80;5.13;;;;;;;0.16;88.66;95014.56;5006109;28;20204;-69
2021/12/18 03:55:46;;;;;;;11.00;5.03;;;;;;;0.32;88.16;95016.28;5031747;28;20204;-69
2021/12/18 03:58:13;;;;;;;8.02;4.35;;;;;;;0.07;89.15;95013.41;5031660;28;20204;-70
2021/12/18 04:00:40;;;;;;;8.32;4.82;;;;;;;-0.06;89.00;95007.44;5031142;28;20228;-69
2021/12/18 04:03:09;;;;;;;8.80;4.63;;;;;;;-0.06;89.39;95012.78;5031112;28;20286;-70
2021/12/18 04:05:36;;;;;;;8.32;4.75;;;;;;;-0.12;89.78;95016.41;5017328;28;20205;-69
2021/12/18 04:08:12;;;;;;;6.25;3.47;;;;;;;-0.01;89.46;95017.34;5031688;28;20200;-69
2021/12/18 04:10:41;;;;;;;7.50;4.22;;;;;;;0.06;88.99;95011.81;5031514;28;20254;-70
2021/12/18 04:13:10;;;;;;;8.43;4.22;;;;;;;0.06;88.98;95003.81;5030947;28;20212;-69
2021/12/18 04:15:38;;;;;;;9.30;4.50;;;;;;;0.22;88.75;95006.38;5030423;28;20258;-69
2021/12/18 04:18:05;;;;;;;8.68;4.50;;;;;;;0.05;87.73;94999.53;5030486;28;20204;-71
2021/12/18 04:20:34;;;;;;;7.85;4.05;;;;;;;0.14;87.58;95019.31;5030935;28;20208;-70
2021/12/18 04:23:01;;;;;;;6.53;4.10;;;;;;;0.13;86.73;95017.75;5030896;28;20238;-69
2021/12/18 04:25:28;;;;;;;6.47;3.88;;;;;;;0.12;86.46;95016.13;5030987;28;20204;-70
2021/12/18 04:27:55;;;;;;;6.13;3.78;;;;;;;0.30;86.23;95029.06;5030658;28;20258;-70
2021/12/18 04:30:22;;;;;;;8.93;4.20;;;;;;;0.30;85.71;95029.06;5024265;28;20259;-70
2021/12/18 04:32:48;;;;;;;7.93;3.78;;;;;;;0.33;86.17;95033.88;5006375;28;20209;-70
2021/12/18 04:35:15;;;;;;;8.60;4.85;;;;;;;0.56;85.78;95033.53;5024597;28;20254;-70
2021/12/18 04:37:44;;;;;;;9.27;4.22;;;;;;;0.52;85.15;95026.34;5030989;28;20204;-70
2021/12/18 04:40:11;;;;;;;9.73;4.13;;;;;;;0.39;85.30;95026.75;5021713;28;20279;-70
2021/12/18 04:42:38;;;;;;;6.55;3.15;;;;;;;0.39;85.35;95038.22;5023653;28;20698;-70
2021/12/18 04:45:06;;;;;;;5.63;3.85;;;;;;;0.33;85.77;95037.34;5030527;28;20216;-70
2021/12/18 04:47:33;;;;;;;9.70;4.05;;;;;;;0.39;85.29;95034.75;5030965;28;20269;-71
2021/12/18 04:50:00;;;;;;;9.27;4.47;;;;;;;0.38;84.30;95046.47;5030616;28;20721;-70
2021/12/18 04:52:27;;;;;;;6.20;3.28;;;;;;;0.33;84.64;95039.22;5031111;28;20282;-69
2021/12/18 04:54:56;;;;;;;10.85;4.10;;;;;;;0.40;83.85;95045.16;5030520;28;20216;-70
2021/12/18 04:57:22;;;;;;;12.40;4.57;;;;;;;0.31;84.07;95046.66;5030990;28;20254;-70
2021/12/18 04:59:49;;;;;;;8.10;3.63;;;;;;;0.36;84.20;95038.72;5030910;28;20258;-70
2021/12/18 05:02:20;;;;;;;8.43;3.78;;;;;;;0.51;83.33;95062.84;5031070;28;20254;-71
2021/12/18 05:04:47;;;;;;;5.80;2.78;;;;;;;0.42;83.35;95059.00;5032464;28;20224;-71
2021/12/18 05:07:14;;;;;;;6.00;3.55;;;;;;;0.52;83.52;95059.13;5018029;28;20625;-71
2021/12/18 05:09:42;;;;;;;5.85;2.53;;;;;;;0.50;83.55;95066.56;5020602;28;20212;-70
2021/12/18 05:12:11;;;;;;;7.13;4.00;;;;;;;0.46;83.21;95064.63;5030588;28;20250;-70
2021/12/18 05:14:38;;;;;;;6.93;4.35;;;;;;;0.40;84.21;95069.13;5030815;28;20244;-70
2021/12/18 05:17:05;;;;;;;6.97;3.70;;;;;;;0.43;83.79;95071.28;5029796;28;20205;-70
2021/12/18 05:19:32;;;;;;;7.63;3.20;;;;;;;0.40;83.42;95077.13;5030504;28;20200;-70
2021/12/18 05:21:59;;;;;;;6.78;2.78;;;;;;;0.40;83.38;95085.13;5030739;28;20200;-69
2021/12/18 05:24:26;;;;;;;5.75;2.97;;;;;;;0.43;83.58;95087.25;5030647;28;20235;-69
2021/12/18 05:26:53;;;;;;;7.38;2.95;;;;;;;0.45;83.39;95090.47;5030494;28;20691;-70
2021/12/18 05:29:21;;;;;;;6.50;3.15;;;;;;;0.40;83.56;95093.13;5030558;28;20205;-70
2021/12/18 05:31:48;;;;;;;9.48;3.05;;;;;;;0.44;83.78;95096.88;5030603;28;20204;-70
2021/12/18 05:34:21;;;;;;;5.25;2.28;;;;;;;0.38;83.44;95103.22;5027312;28;20731;-71
2021/12/18 05:39:30;;;;;;;5.53;3.00;;;;;;;0.32;83.53;95104.22;5013456;28;20209;-71
2021/12/18 05:41:58;;;;;;;6.47;2.55;;;;;;;0.39;83.85;95110.16;5004361;28;20240;-71
2021/12/18 05:44:27;;;;;;;7.78;3.00;;;;;;;0.41;83.47;95105.34;5033352;28;20357;-70
2021/12/18 05:46:55;;;;;;;6.85;3.80;;;;;;;0.29;83.23;95108.19;5033303;28;20222;-69
2021/12/18 05:49:22;;;;;;;5.45;3.30;;;;;;;0.24;83.68;95099.34;5034231;28;20196;-70
2021/12/18 05:51:50;;;;;;;5.53;3.42;;;;;;;0.32;83.33;95109.53;5024462;28;20212;-70
2021/12/18 05:54:18;;;;;;;9.88;3.50;;;;;;;0.25;83.50;95115.09;5033807;28;20200;-70
2021/12/18 05:56:45;;;;;;;12.65;3.40;;;;;;;0.32;83.44;95112.22;5033849;28;20255;-70
2021/12/18 05:59:12;;;;;;;5.78;3.15;;;;;;;0.27;83.58;95110.28;5033890;28;20204;-70
2021/12/18 06:01:41;;;;;;;8.77;3.35;;;;;;;0.47;83.59;95112.34;5033921;28;20228;-70
2021/12/18 06:04:09;;;;;;;4.00;2.83;;;;;;;0.48;82.85;95111.31;5033307;28;20228;-70
2021/12/18 06:06:35;;;;;;;5.88;2.88;;;;;;;0.41;82.79;95116.00;5033457;28;20212;-70
2021/12/18 06:09:02;;;;;;;5.80;2.70;;;;;;;0.50;82.87;95125.19;5032872;28;20270;-70
2021/12/18 06:11:31;;;;;;;7.10;3.33;;;;;;;0.50;83.10;95130.50;5033880;28;20196;-70
2021/12/18 06:13:58;;;;;;;7.65;2.78;;;;;;;0.51;83.23;95131.31;5033121;28;20621;-70
2021/12/18 06:16:25;;;;;;;5.57;2.97;;;;;;;0.51;83.33;95136.66;5033558;28;20236;-70
2021/12/18 06:18:53;;;;;;;5.38;2.85;;;;;;;0.46;83.72;95144.59;5032695;28;20602;-70
2021/12/18 06:21:22;;;;;;;8.70;3.78;;;;;;;0.47;84.04;95141.66;5032757;28;20794;-69
2021/12/18 06:23:50;;;;;;;6.10;3.92;;;;;;;0.48;84.70;95153.94;5029515;28;20228;-70
2021/12/18 06:26:18;;;;;;;12.80;3.67;;;;;;;0.26;84.89;95155.84;5032821;28;20331;-70
2021/12/18 06:28:45;;;;;;;8.13;3.85;;;;;;;0.31;85.68;95163.88;5025552;28;20252;-72
2021/12/18 06:31:13;;;;;;;6.93;3.75;;;;;;;0.27;85.65;95165.47;5013462;28;20220;-71
2021/12/18 06:33:39;;;;;;;9.48;3.95;;;;;;;0.22;85.90;95165.38;5031114;28;20204;-71
2021/12/18 06:36:08;;;;;;;9.20;3.20;;;;;;;0.31;86.34;95163.88;5026183;28;20196;-70
2021/12/18 06:38:35;;;;;;;10.00;5.22;;;;;;;0.32;86.64;95173.47;5032878;28;20626;-70
2021/12/18 06:41:03;;;;;;;10.20;4.40;;;;;;;0.43;86.89;95167.19;5016435;28;20237;-71
2021/12/18 06:43:30;;;;;;;9.10;4.03;;;;;;;0.49;86.88;95171.53;5027310;28;20225;-70
2021/12/18 06:45:56;;;;;;;8.32;3.88;;;;;;;0.41;86.02;95168.53;5014250;28;20588;-70
2021/12/18 06:48:24;;;;;;;12.15;5.38;;;;;;;0.62;86.33;95178.34;5011900;28;20330;-70
2021/12/18 06:50:51;;;;;;;10.23;5.38;;;;;;;0.75;86.36;95169.13;5012944;28;20681;-71
2021/12/18 06:53:19;;;;;;;10.23;4.32;;;;;;;0.89;86.05;95172.97;5005639;28;20206;-70
2021/12/18 06:55:46;;;;;;;13.48;3.47;;;;;;;0.76;86.04;95173.41;5032350;28;20205;-70
2021/12/18 06:58:13;;;;;;;9.90;4.55;;;;;;;0.74;85.47;95175.50;5032847;28;20205;-70
2021/12/18 07:00:40;;;;;;;10.52;4.20;;;;;;;0.59;85.37;95184.16;5027780;28;20632;-70
2021/12/18 07:03:07;;;;;;;6.45;3.90;;;;;;;0.78;85.09;95179.28;5013983;28;20224;-70
2021/12/18 07:05:34;;;;;;;10.32;4.20;;;;;;;0.64;85.79;95198.34;5012389;28;20584;-71
2021/12/18 07:08:01;;;;;;;13.40;5.20;;;;;;;0.66;86.44;95204.25;5013437;28;20201;-71
2021/12/18 07:10:30;;;;;;;10.82;5.45;;;;;;;0.76;85.66;95202.72;5013029;28;20197;-71
2021/12/18 07:12:57;;;;;;;12.65;5.18;;;;;;;0.81;85.20;95210.78;5012645;28;20555;-72
2021/12/18 07:15:24;;;;;;;8.85;4.80;;;;;;;0.83;85.61;95209.44;5014637;28;20604;-72
2021/12/18 07:17:51;;;;;;;10.70;6.13;;;;;;;0.96;84.65;95205.56;5012193;28;20684;-72
2021/12/18 07:20:18;;;;;;;12.57;5.93;;;;;;;1.07;84.54;95204.63;5023412;28;20201;-72
2021/12/18 07:22:45;;;;;;;12.05;5.55;;;;;;;1.13;84.36;95206.25;5031805;28;20605;-72
2021/12/18 07:25:12;;;;;;;9.52;4.85;;;;;;;1.13;84.34;95203.59;5013500;28;20298;-72
2021/12/18 07:27:40;;;;;;;12.65;5.75;;;;;;;1.15;83.93;95204.16;5011920;28;20721;-74
2021/12/18 07:30:09;;;;;;;13.25;5.80;;;;;;;1.34;83.44;95194.72;5014324;28;20727;-73
2021/12/18 07:32:36;;;;;;;17.63;7.32;;;;;;;1.36;83.00;95203.28;5031490;28;20228;-73
2021/12/18 07:35:03;;;;;;;19.38;8.95;;;;;;;1.50;82.67;95213.50;5022253;28;20208;-72
2021/12/18 07:37:30;;;;;;;14.82;7.05;;;;;;;1.42;81.86;95207.56;5022376;28;20214;-72
2021/12/18 07:39:57;;;;;;;7.75;4.30;;;;;;;1.54;81.32;95204.72;5021964;28;20197;-75
2021/12/18 07:42:24;;;;;;;10.98;4.90;;;;;;;1.56;81.18;95207.13;5022169;28;20278;-74
2021/12/18 07:44:53;;;;;;;6.53;3.10;;;;;;;1.57;80.25;95203.41;5031508;28;20243;-77
2021/12/18 07:47:21;;;;;;;4.97;3.10;;;;;;;1.54;79.86;95214.59;5031764;28;20211;-73
2021/12/18 07:49:47;;;;;;;8.27;4.18;;;;;;;1.75;80.38;95224.34;5012392;28;20279;-74
2021/12/18 07:52:14;;;;;;;12.77;5.18;;;;;;;1.74;79.57;95217.41;5010536;28;20213;-74
2021/12/18 07:54:41;;;;;;;9.65;4.68;;;;;;;1.40;80.34;95225.69;5015273;28;20259;-75
2021/12/18 07:57:09;;;;;;;9.40;5.47;;;;;;;1.42;80.67;95228.91;5016442;28;20660;-74
2021/12/18 07:59:36;;;;;;;9.52;4.00;;;;;;;1.41;79.63;95237.97;5029748;28;20224;-74
2021/12/18 08:02:05;;;;;;;8.50;4.43;;;;;;;1.49;79.73;95235.91;5015819;28;20271;-75
2021/12/18 08:04:32;;;;;;;10.68;3.80;;;;;;;1.48;79.74;95242.31;5007615;28;20264;-75
2021/12/18 08:06:59;;;;;;;11.50;4.43;;;;;;;1.75;78.84;95248.38;5010818;28;20213;-72
2021/12/18 08:09:26;;;;;;;14.32;5.63;;;;;;;1.83;79.33;95253.25;5030991;28;20212;-74
2021/12/18 08:11:53;;;;;;;6.97;3.90;;;;;;;1.84;78.52;95252.19;5018019;28;20236;-77
2021/12/18 08:14:20;;;;;;;4.93;3.50;;;;;;;1.79;78.47;95244.94;5010615;28;20272;-73
2021/12/18 08:16:48;;;;;;;9.60;5.00;;;;;;;1.56;79.41;95247.16;5010838;28;20205;-73
2021/12/18 08:19:16;;;;;;;9.35;5.32;;;;;;;1.38;79.89;95264.38;5010706;28;20251;-74
2021/12/18 08:21:43;;;;;;;9.65;4.50;;;;;;;1.80;78.50;95256.41;5009666;28;20267;-75
2021/12/18 08:24:10;;;;;;;11.02;4.55;;;;;;;1.87;79.21;95262.34;5009650;28;20655;-75
2021/12/18 08:26:37;;;;;;;8.20;4.22;;;;;;;1.87;77.57;95257.00;5010928;28;20275;-73
2021/12/18 08:29:04;;;;;;;10.25;4.97;;;;;;;1.89;78.33;95259.44;5010719;28;20205;-73
2021/12/18 08:31:30;;;;;;;15.80;4.15;;;;;;;2.40;77.50;95265.84;5010913;28;20213;-74
2021/12/18 08:33:57;;;;;;;10.13;5.32;;;;;;;2.43;76.29;95254.66;5010663;28;20201;-74
2021/12/18 08:36:25;;;;;;;11.60;5.25;;;;;;;2.40;75.69;95263.19;5010468;28;20201;-75
2021/12/18 08:38:52;;;;;;;9.32;5.30;;;;;;;2.57;76.99;95266.47;5010369;28;20258;-75
2021/12/18 08:41:20;;;;;;;10.23;4.82;;;;;;;2.40;75.83;95265.84;5010441;28;20239;-76
2021/12/18 08:43:48;;;;;;;8.13;5.10;;;;;;;2.37;76.14;95263.69;5010476;28;20591;-74
2021/12/18 08:46:15;;;;;;;11.00;4.95;;;;;;;2.25;76.60;95263.09;5009983;28;20585;-74
2021/12/18 08:48:42;;;;;;;12.45;6.50;;;;;;;1.97;76.69;95266.94;5018873;28;20730;-72
2021/12/18 08:51:09;;;;;;;14.75;6.10;;;;;;;1.98;77.31;95264.03;5009703;28;20213;-72
2021/12/18 08:53:37;;;;;;;11.52;4.95;;;;;;;1.85;78.31;95264.47;5010409;28;20282;-73
2021/12/18 08:56:05;;;;;;;8.38;4.88;;;;;;;1.86;77.89;95260.75;5010235;28;20605;-73
2021/12/18 08:58:32;;;;;;;8.07;4.30;;;;;;;2.11;76.84;95252.88;5010339;28;20553;-72
2021/12/18 09:00:59;;;;;;;9.73;4.03;;;;;;;2.30;75.21;95244.44;5014024;28;20228;-71
2021/12/18 09:03:26;;;;;;;6.75;3.90;;;;;;;2.52;75.96;95253.06;5019739;28;20703;-73
2021/12/18 09:05:54;;;;;;;14.20;6.00;;;;;;;2.46;74.59;95259.47;5010229;28;20240;-71
2021/12/18 09:08:21;;;;;;;16.08;7.47;;;;;;;2.65;73.60;95257.94;5010648;28;20212;-72
2021/12/18 09:10:49;;;;;;;15.25;6.88;;;;;;;2.89;74.54;95252.09;5014280;28;20212;-73
2021/12/18 09:13:16;;;;;;;9.80;5.13;;;;;;;2.88;74.07;95250.50;5019396;28;20314;-72
2021/12/18 09:15:43;;;;;;;15.20;5.35;;;;;;;2.81;74.65;95248.91;5009647;28;20260;-72
2021/12/18 09:18:10;;;;;;;5.97;4.00;;;;;;;2.54;74.31;95247.47;5023889;28;20255;-70
2021/12/18 09:20:37;;;;;;;8.85;4.32;;;;;;;2.54;73.98;95240.25;5014384;28;20212;-71
2021/12/18 09:23:04;;;;;;;8.13;4.28;;;;;;;2.75;74.71;95241.09;5014265;28;20212;-72
2021/12/18 09:25:31;;;;;;;6.30;3.95;;;;;;;3.35;74.02;95235.06;5013797;28;20255;-73
2021/12/18 09:27:59;;;;;;;12.93;4.57;;;;;;;3.47;74.04;95238.28;5013860;28;20726;-72
2021/12/18 09:30:26;;;;;;;11.68;5.03;;;;;;;3.55;72.35;95235.06;5013911;28;20212;-72
2021/12/18 09:32:53;;;;;;;11.15;5.47;;;;;;;3.57;73.87;95245.50;5011630;28;20213;-73
2021/12/18 09:35:21;;;;;;;11.75;5.93;;;;;;;3.37;74.12;95246.31;5011921;28;20209;-74
2021/12/18 09:37:48;;;;;;;12.65;5.43;;;;;;;2.84;75.98;95259.06;5013592;28;20212;-74
2021/12/18 09:40:17;;;;;;;8.35;4.28;;;;;;;2.65;76.87;95257.13;5013819;28;20631;-72
2021/12/18 09:42:44;;;;;;;9.27;4.88;;;;;;;2.68;76.10;95246.72;5024433;28;20552;-72
2021/12/18 09:45:13;;;;;;;5.90;3.90;;;;;;;2.71;76.17;95246.19;5000569;28;20688;-72
2021/12/18 09:47:40;;;;;;;4.55;2.67;;;;;;;2.62;75.53;95246.94;5012401;28;20209;-71
2021/12/18 09:50:08;;;;;;;9.68;3.78;;;;;;;2.52;76.97;95242.38;5011149;28;20213;-71
2021/12/18 09:52:36;;;;;;;8.13;3.78;;;;;;;2.55;75.99;95249.06;5027005;28;20315;-70
2021/12/18 09:55:06;;;;;;;7.70;4.25;;;;;;;2.69;75.18;95252.88;5010399;28;20217;-70
2021/12/18 09:57:33;;;;;;;9.98;3.90;;;;;;;2.49;76.56;95256.25;5003019;28;20210;-71
2021/12/18 10:00:00;;;;;;;4.63;3.25;;;;;;;2.38;76.84;95246.59;5008617;28;20275;-72
2021/12/18 10:02:28;;;;;;;6.82;4.22;;;;;;;2.61;76.16;95240.78;5013290;28;20219;-71
2021/12/18 10:04:56;;;;;;;14.68;6.15;;;;;;;3.13;74.26;95239.88;5013539;28;20283;-72
2021/12/18 10:07:25;;;;;;;18.45;7.78;;;;;;;3.44;75.55;95228.09;5012824;28;20205;-72
2021/12/18 10:09:56;;;;;;;6.00;3.67;;;;;;;3.86;73.44;95230.47;5013682;28;20201;-71
2021/12/18 10:12:24;;;;;;;7.22;3.72;;;;;;;4.06;71.73;95218.13;5013312;28;20308;-71
2021/12/18 10:14:54;;;;;;;13.30;6.15;;;;;;;4.00;71.04;95219.19;5013471;28;20266;-71
2021/12/18 10:17:31;;;;;;;10.77;5.70;;;;;;;4.35;70.91;95215.63;5012807;28;20343;-71
2021/12/18 10:20:17;;;;;;;5.18;2.70;;;;;;;3.45;70.73;95219.00;5012394;28;20991;-72
2021/12/18 10:22:45;;;;;;;4.40;2.78;;;;;;;3.18;71.76;95216.56;5013066;28;20253;-71
2021/12/18 10:25:14;;;;;;;20.40;7.03;;;;;;;3.27;73.56;95208.84;5013296;28;20239;-71
2021/12/18 10:27:43;;;;;;;7.28;3.38;;;;;;;3.05;72.33;95213.63;5012104;28;20205;-71
2021/12/18 10:30:13;;;;;;;7.78;3.63;;;;;;;3.26;72.64;95225.16;5011298;28;20563;-70
2021/12/18 10:32:54;;;;;;;5.05;2.83;;;;;;;3.54;72.01;95227.31;5012318;28;20677;-71
2021/12/18 10:35:21;;;;;;;4.93;3.20;;;;;;;3.72;70.99;95224.06;5019358;28;20208;-71
2021/12/18 10:37:48;;;;;;;8.02;3.45;;;;;;;3.55;71.93;95210.19;5034409;28;20253;-70
2021/12/18 10:40:15;;;;;;;10.05;3.85;;;;;;;3.76;71.23;95218.97;5022455;28;20277;-71
2021/12/18 10:42:45;;;;;;;3.78;2.17;;;;;;;3.64;70.62;95210.44;5025424;28;20274;-70
2021/12/18 10:45:18;;;;;;;8.10;3.33;;;;;;;3.57;69.93;95216.84;5006582;28;20306;-71
2021/12/18 10:47:56;;;;;;;8.55;3.70;;;;;;;3.64;71.45;95205.06;5031841;28;20251;-71
2021/12/18 10:50:31;;;;;;;8.15;5.15;;;;;;;3.58;70.03;95207.75;5031137;28;20898;-70
2021/12/18 10:53:01;;;;;;;7.13;4.07;;;;;;;3.84;71.70;95195.09;5029813;28;20215;-73
2021/12/18 10:55:30;;;;;;;9.80;5.43;;;;;;;3.87;69.24;95191.88;5032180;28;20556;-71
2021/12/18 10:57:57;;;;;;;9.50;5.25;;;;;;;3.95;69.17;95184.38;5031724;28;20205;-73
2021/12/18 11:00:50;;;;;;;10.20;3.38;;;;;;;4.03;67.69;95189.97;5031913;28;20691;-72
2021/12/18 11:03:22;;;;;;;7.88;3.47;;;;;;;4.14;67.45;95182.72;5000099;28;20286;-73
2021/12/18 11:06:20;;;;;;;6.75;3.35;;;;;;;4.21;67.03;95188.59;5032339;28;20224;-72
2021/12/18 11:09:05;;;;;;;7.80;3.08;;;;;;;4.28;67.92;95189.91;5032371;28;20220;-70
2021/12/18 11:14:25;;;;;;;5.38;2.88;;;;;;;4.08;66.80;95184.63;5018382;28;20310;-71
2021/12/18 11:16:54;;;;;;;3.95;2.45;;;;;;;3.87;68.10;95199.94;5018465;28;20208;-72
2021/12/18 11:19:24;;;;;;;5.47;2.45;;;;;;;3.10;70.35;95203.72;5009958;28;20205;-74
2021/12/18 11:21:53;;;;;;;6.20;3.92;;;;;;;3.28;69.63;95206.97;5010688;28;20271;-73
2021/12/18 11:24:22;;;;;;;7.97;2.97;;;;;;;3.22;68.52;95195.44;5029405;28;20215;-72
2021/12/18 11:26:57;;;;;;;8.82;3.72;;;;;;;3.25;68.62;95202.13;5015717;28;20267;-72
2021/12/18 11:29:31;;;;;;;3.88;2.03;;;;;;;2.98;65.04;95213.09;5018370;28;20211;-73
2021/12/18 11:31:58;;;;;;;1.83;0.90;;;;;;;2.78;64.46;95201.25;5011870;28;20217;-71
2021/12/18 11:34:27;;;;;;;2.38;1.30;;;;;;;2.61;65.70;95200.69;5009448;28;20208;-71
2021/12/18 11:36:55;;;;;;;2.05;1.30;;;;;;;2.50;65.85;95204.41;5011706;28;20212;-75
2021/12/18 11:39:29;;;;;;;2.40;1.77;;;;;;;2.53;66.23;95200.41;5011948;28;20678;-71
2021/12/18 11:41:56;;;;;;;2.53;1.55;;;;;;;2.57;65.63;95207.63;4998233;28;20328;-72
2021/12/18 11:44:42;;;;;;;0.68;0.60;;;;;;;2.69;66.60;95196.72;5011519;28;20225;-70
2021/12/18 11:47:27;;;;;;;1.50;1.10;;;;;;;2.69;65.69;95197.50;5009109;28;20487;-72
2021/12/18 11:49:57;;;;;;;3.75;1.45;;;;;;;2.82;65.80;95188.16;5011659;28;20208;-71
2021/12/18 11:52:25;;;;;;;2.50;1.40;;;;;;;2.99;66.54;95195.97;5010820;28;20263;-70
2021/12/18 11:54:55;;;;;;;1.90;0.95;;;;;;;2.87;63.73;95190.06;5022529;28;20212;-71
2021/12/18 11:57:42;;;;;;;5.80;1.83;;;;;;;2.78;65.72;95197.78;5011626;28;20209;-72
2021/12/18 12:00:32;;;;;;;1.65;1.05;;;;;;;2.63;65.27;95190.53;5020134;28;20216;-73
2021/12/18 12:03:01;;;;;;;1.70;1.48;;;;;;;2.72;65.90;95194.31;5011220;28;20696;-70
2021/12/18 12:05:38;;;;;;;1.50;1.10;;;;;;;2.64;64.28;95202.84;5021070;28;20240;-74
2021/12/18 12:08:23;;;;;;;1.50;1.05;;;;;;;2.61;65.00;95187.31;4998875;28;20201;-71
2021/12/18 12:11:26;;;;;;;2.30;1.33;;;;;;;2.60;65.69;95192.94;5010858;28;20731;-71
2021/12/18 12:14:08;;;;;;;2.35;1.13;;;;;;;2.47;64.70;95196.88;5010888;28;20201;-71
2021/12/18 12:17:21;;;;;;;1.80;1.35;;;;;;;2.47;64.96;95196.88;5006739;28;20670;-70
2021/12/18 12:20:00;;;;;;;1.25;1.13;;;;;;;2.45;64.88;95193.69;5004947;28;20269;-70
2021/12/18 12:22:52;;;;;;;1.45;1.00;;;;;;;2.32;65.86;95178.16;5012512;28;20205;-71
2021/12/18 12:25:33;;;;;;;2.38;1.73;;;;;;;2.49;68.40;95197.44;5008471;28;20237;-71
2021/12/18 12:28:06;;;;;;;2.60;1.88;;;;;;;2.28;72.33;95198.44;5008877;28;20213;-72